Time;durP1;ratioP1;P1;durP2;ratioP2;P2;SDS_P1;SDS_P2;PMS_P1;PMS_P2;Temp;Humidity;BMP_temperature;BMP_pressure;BME280_temperature;BME280_humidity;BME280_pressure;Samples;Min_cycle;Max_cycle;Signal;HPM_P1;HPM_P2
2021/05/12 00:01:49;;;;;;;7.05;6.45;;;12.60;99.90;;;;;;5053858;28;20186;-92
2021/05/12 00:04:15;;;;;;;7.53;6.65;;;12.50;99.90;;;;;;5053916;28;20171;-92
2021/05/12 00:06:40;;;;;;;10.88;7.20;;;12.40;99.90;;;;;;5053966;28;20222;-91
2021/05/12 00:09:06;;;;;;;10.57;7.45;;;12.40;99.90;;;;;;5037690;28;20259;-92
2021/05/12 00:11:31;;;;;;;7.47;6.88;;;12.40;99.90;;;;;;5037345;28;20177;-91
2021/05/12 00:13:57;;;;;;;7.53;6.68;;;12.50;99.90;;;;;;5053538;28;20170;-91
2021/05/12 00:16:23;;;;;;;15.55;7.45;;;12.40;99.90;;;;;;5052865;28;20178;-91
2021/05/12 00:18:48;;;;;;;11.73;7.28;;;12.50;99.90;;;;;;5052988;28;20182;-92
2021/05/12 00:21:22;;;;;;;13.65;8.27;;;12.50;99.90;;;;;;5037170;28;20199;-92
2021/05/12 00:23:57;;;;;;;9.02;8.10;;;12.50;99.90;;;;;;5053302;28;20198;-92
2021/05/12 00:26:24;;;;;;;9.00;8.20;;;12.50;99.90;;;;;;5056645;28;20186;-92
2021/05/12 00:28:49;;;;;;;13.05;8.68;;;12.50;99.90;;;;;;5057641;28;20172;-92
2021/05/12 00:31:16;;;;;;;11.18;8.23;;;12.50;99.90;;;;;;5035291;28;20187;-92
2021/05/12 00:33:41;;;;;;;11.90;8.27;;;12.50;99.90;;;;;;5033207;28;20226;-93
2021/05/12 00:36:07;;;;;;;12.98;9.20;;;12.40;99.90;;;;;;5036308;28;20184;-93
2021/05/12 00:38:33;;;;;;;9.90;8.68;;;12.40;99.90;;;;;;5053155;28;20171;-92
2021/05/12 00:40:59;;;;;;;15.18;9.85;;;12.40;99.90;;;;;;5052964;28;20652;-91
2021/05/12 00:43:24;;;;;;;14.40;10.25;;;12.40;99.90;;;;;;5053334;28;20179;-93
2021/05/12 00:45:50;;;;;;;10.05;9.05;;;12.40;99.90;;;;;;5052833;28;20217;-91
2021/05/12 00:48:16;;;;;;;11.27;9.13;;;12.40;99.90;;;;;;5053253;28;20532;-92
2021/05/12 00:50:41;;;;;;;21.40;10.93;;;12.40;99.90;;;;;;5052325;28;20203;-92
2021/05/12 00:53:07;;;;;;;10.15;9.15;;;12.40;99.90;;;;;;5052788;28;20262;-92
2021/05/12 00:55:33;;;;;;;17.38;10.63;;;12.40;99.90;;;;;;5052477;28;20202;-91
2021/05/12 00:57:59;;;;;;;11.82;10.63;;;12.30;99.90;;;;;;5036674;28;20175;-92
2021/05/12 01:00:28;;;;;;;18.13;10.77;;;12.30;99.90;;;;;;5053117;28;20195;-91
2021/05/12 01:02:53;;;;;;;14.65;9.77;;;12.20;99.90;;;;;;5056820;28;20180;-91
2021/05/12 01:05:30;;;;;;;19.77;10.70;;;12.20;99.90;;;;;;5056408;28;20524;-92
2021/05/12 01:07:56;;;;;;;16.58;10.63;;;12.10;99.90;;;;;;5057580;28;20551;-92
2021/05/12 01:10:22;;;;;;;15.80;10.55;;;12.10;99.90;;;;;;5056232;28;20186;-92
2021/05/12 01:12:50;;;;;;;13.18;10.48;;;12.20;99.90;;;;;;5057097;28;20217;-91
2021/05/12 01:15:15;;;;;;;13.02;10.55;;;12.20;99.90;;;;;;5056298;28;20202;-91
2021/05/12 01:17:41;;;;;;;14.73;10.95;;;12.10;99.90;;;;;;5057053;28;20163;-92
2021/05/12 01:20:10;;;;;;;11.55;9.65;;;12.10;99.90;;;;;;5039233;28;20199;-91
2021/05/12 01:22:36;;;;;;;18.02;10.70;;;12.10;99.90;;;;;;5066360;28;20185;-91
2021/05/12 01:25:03;;;;;;;18.38;10.13;;;12.00;99.90;;;;;;5058882;28;20167;-93
2021/05/12 01:27:29;;;;;;;13.35;9.98;;;12.00;99.90;;;;;;5077150;28;20163;-92
2021/05/12 01:29:55;;;;;;;17.10;10.32;;;12.00;99.90;;;;;;5040066;28;20250;-92
2021/05/12 01:32:21;;;;;;;13.27;8.50;;;11.90;99.90;;;;;;5055959;28;20179;-92
2021/05/12 01:34:47;;;;;;;15.82;10.25;;;11.90;99.90;;;;;;5055908;28;20175;-92
2021/05/12 01:37:12;;;;;;;15.95;10.88;;;11.80;99.90;;;;;;5056992;28;20596;-91
2021/05/12 01:39:38;;;;;;;18.27;8.82;;;11.80;99.90;;;;;;5056318;28;20178;-93
2021/05/12 01:42:04;;;;;;;14.60;8.93;;;11.80;99.90;;;;;;5055624;28;20183;-92
2021/05/12 01:44:30;;;;;;;16.02;8.60;;;11.60;99.90;;;;;;5056800;28;20168;-92
2021/05/12 01:46:55;;;;;;;13.55;8.05;;;11.50;99.90;;;;;;5055738;28;20230;-91
2021/05/12 01:49:21;;;;;;;14.18;8.55;;;11.40;99.90;;;;;;5055786;28;20199;-92
2021/05/12 01:51:47;;;;;;;14.82;9.27;;;11.30;99.90;;;;;;5055662;28;20187;-91
2021/05/12 01:54:13;;;;;;;14.00;8.82;;;11.30;99.90;;;;;;5055554;28;20309;-92
2021/05/12 01:56:40;;;;;;;14.15;9.07;;;11.20;99.90;;;;;;5037163;28;20190;-93
2021/05/12 01:59:07;;;;;;;18.85;9.73;;;11.20;99.90;;;;;;5093253;28;20174;-92
2021/05/12 02:01:33;;;;;;;11.10;8.88;;;11.10;99.90;;;;;;5076368;28;20195;-92
2021/05/12 02:04:06;;;;;;;12.98;8.15;;;11.10;99.90;;;;;;5067412;28;20546;-92
2021/05/12 02:06:33;;;;;;;11.40;8.40;;;10.90;99.90;;;;;;5056111;28;20174;-91
2021/05/12 02:09:07;;;;;;;11.18;8.02;;;10.90;99.90;;;;;;5055166;28;20178;-92
2021/05/12 02:11:34;;;;;;;20.38;8.75;;;10.90;99.90;;;;;;5055479;28;20269;-91
2021/05/12 02:14:00;;;;;;;20.60;8.35;;;10.80;99.90;;;;;;5054854;28;20178;-91
2021/05/12 02:16:26;;;;;;;13.80;8.80;;;10.80;99.90;;;;;;5066352;28;20243;-92
2021/05/12 02:18:52;;;;;;;10.55;8.68;;;10.80;99.90;;;;;;5071371;28;20167;-91
2021/05/12 02:21:17;;;;;;;9.77;7.32;;;10.80;99.90;;;;;;5065102;28;20278;-92
2021/05/12 02:23:43;;;;;;;13.18;8.95;;;10.70;99.90;;;;;;5055199;28;20557;-92
2021/05/12 02:26:09;;;;;;;11.02;7.82;;;10.70;99.90;;;;;;5055177;28;20179;-91
2021/05/12 02:28:35;;;;;;;18.33;9.10;;;10.70;99.90;;;;;;5055008;28;20600;-92
2021/05/12 02:31:00;;;;;;;15.40;8.05;;;10.60;99.90;;;;;;5073359;28;20234;-90
2021/05/12 02:33:26;;;;;;;14.82;8.80;;;10.60;99.90;;;;;;5059394;28;20258;-91
2021/05/12 02:35:52;;;;;;;18.13;8.93;;;10.70;99.90;;;;;;5055660;28;20666;-91
2021/05/12 02:38:17;;;;;;;11.85;8.65;;;10.80;99.90;;;;;;5055075;28;20168;-92
2021/05/12 02:40:43;;;;;;;11.95;7.80;;;10.90;99.90;;;;;;5054792;28;20238;-91
2021/05/12 02:43:09;;;;;;;15.15;8.23;;;10.90;99.90;;;;;;5054779;28;20171;-91
2021/05/12 02:45:34;;;;;;;9.40;7.70;;;10.80;99.90;;;;;;5054579;28;20542;-91
2021/05/12 02:48:02;;;;;;;10.13;7.10;;;10.70;99.90;;;;;;5037508;28;20174;-92
2021/05/12 02:50:39;;;;;;;11.02;6.70;;;10.60;99.90;;;;;;5054516;28;20175;-91
2021/05/12 02:53:07;;;;;;;14.32;6.90;;;10.60;99.90;;;;;;5055686;28;20159;-91
2021/05/12 02:55:33;;;;;;;17.58;7.30;;;10.50;99.90;;;;;;5054056;28;20195;-92
2021/05/12 02:57:59;;;;;;;10.30;7.35;;;10.50;99.90;;;;;;5055513;28;20166;-91
2021/05/12 03:00:27;;;;;;;12.45;7.07;;;10.50;99.90;;;;;;5055523;28;20194;-90
2021/05/12 03:02:53;;;;;;;10.95;7.60;;;10.50;99.90;;;;;;5055570;28;20180;-92
2021/05/12 03:05:19;;;;;;;9.82;7.88;;;10.50;99.90;;;;;;5054292;28;20187;-91
2021/05/12 03:07:45;;;;;;;11.02;7.40;;;10.50;99.90;;;;;;5054431;28;20530;-91
2021/05/12 03:10:15;;;;;;;8.82;7.18;;;10.50;99.90;;;;;;5037912;28;20179;-92
2021/05/12 03:12:40;;;;;;;10.52;7.07;;;10.40;99.90;;;;;;5054256;28;20220;-92
2021/05/12 03:15:10;;;;;;;9.82;6.38;;;10.40;99.90;;;;;;5055354;28;20226;-92
2021/05/12 03:17:36;;;;;;;12.65;6.32;;;10.30;99.90;;;;;;5053929;28;20193;-92
2021/05/12 03:20:03;;;;;;;12.40;6.00;;;10.20;99.90;;;;;;5054016;28;20203;-91
2021/05/12 03:22:29;;;;;;;6.20;5.65;;;10.20;99.90;;;;;;5053757;28;20179;-91
2021/05/12 03:24:54;;;;;;;11.85;5.38;;;10.10;99.90;;;;;;5053267;28;20171;-92
2021/05/12 03:27:20;;;;;;;13.02;6.70;;;10.10;99.90;;;;;;5054778;28;20205;-92
2021/05/12 03:29:45;;;;;;;12.27;6.50;;;10.00;99.90;;;;;;5033914;28;20564;-92
2021/05/12 03:32:11;;;;;;;12.50;5.63;;;10.00;99.90;;;;;;5033962;28;20180;-91
2021/05/12 03:34:37;;;;;;;14.73;6.55;;;10.00;99.90;;;;;;5053152;28;20198;-92
2021/05/12 03:37:03;;;;;;;10.07;6.05;;;9.90;99.90;;;;;;5053970;28;20178;-91
2021/05/12 03:39:28;;;;;;;6.03;5.43;;;9.90;99.90;;;;;;5053427;28;20171;-92
2021/05/12 03:41:55;;;;;;;8.18;6.00;;;10.00;99.90;;;;;;5036978;28;20713;-93
2021/05/12 03:44:21;;;;;;;10.93;5.68;;;10.00;99.90;;;;;;5054464;28;20183;-92
2021/05/12 03:46:47;;;;;;;12.50;6.43;;;9.90;99.90;;;;;;5053594;28;20266;-92
2021/05/12 03:49:13;;;;;;;6.95;5.35;;;10.00;99.90;;;;;;5055061;28;20222;-93
2021/05/12 03:51:39;;;;;;;8.80;5.68;;;9.90;99.90;;;;;;5055125;28;20195;-92
2021/05/12 03:54:05;;;;;;;8.70;5.63;;;9.80;99.90;;;;;;5054921;28;20652;-92
2021/05/12 03:56:30;;;;;;;13.00;5.75;;;9.80;99.90;;;;;;5055856;28;20187;-93
2021/05/12 03:58:56;;;;;;;6.10;5.45;;;9.90;99.90;;;;;;5073795;28;20232;-91
2021/05/12 04:01:21;;;;;;;8.73;5.82;;;9.90;99.90;;;;;;5077603;28;20265;-89
2021/05/12 04:03:47;;;;;;;8.02;5.55;;;10.00;99.90;;;;;;5078125;28;20231;-89
2021/05/12 04:06:13;;;;;;;15.27;6.45;;;10.10;99.90;;;;;;5061019;28;20168;-89
2021/05/12 04:08:38;;;;;;;6.35;5.38;;;10.20;99.90;;;;;;5070788;28;20175;-92
2021/05/12 04:11:04;;;;;;;8.15;6.20;;;10.30;99.90;;;;;;5037998;28;20211;-91
2021/05/12 04:13:30;;;;;;;9.10;6.07;;;10.40;99.90;;;;;;5055271;28;20175;-92
2021/05/12 04:15:55;;;;;;;10.93;6.25;;;10.40;99.90;;;;;;5054882;28;20209;-93
2021/05/12 04:18:21;;;;;;;8.15;5.72;;;10.50;99.90;;;;;;5054913;28;20521;-92
2021/05/12 04:20:47;;;;;;;8.30;6.05;;;10.70;99.90;;;;;;5053457;28;20660;-91
2021/05/12 04:23:12;;;;;;;12.05;6.32;;;10.80;99.90;;;;;;5052748;28;20202;-92
2021/05/12 04:25:38;;;;;;;12.27;5.47;;;11.00;99.90;;;;;;5053473;28;20176;-92
2021/05/12 04:28:04;;;;;;;6.40;5.65;;;11.10;99.90;;;;;;5052944;28;20172;-92
2021/05/12 04:30:31;;;;;;;15.02;5.93;;;11.40;99.90;;;;;;5064532;28;20183;-91
2021/05/12 04:32:59;;;;;;;6.53;5.88;;;11.60;99.90;;;;;;5070213;28;20171;-91
2021/05/12 04:35:26;;;;;;;10.18;5.57;;;11.70;99.90;;;;;;5052629;28;20168;-91
2021/05/12 04:37:51;;;;;;;8.05;5.32;;;12.00;99.90;;;;;;5058039;28;20733;-93
2021/05/12 04:40:19;;;;;;;10.25;5.47;;;12.10;99.90;;;;;;5058260;28;20195;-90
2021/05/12 04:42:44;;;;;;;9.32;5.97;;;12.30;99.90;;;;;;5059308;28;20627;-92
2021/05/12 04:45:11;;;;;;;11.95;6.07;;;12.40;99.90;;;;;;5078664;28;20171;-91
2021/05/12 04:47:37;;;;;;;9.65;5.55;;;12.40;99.90;;;;;;5082184;28;20574;-93
2021/05/12 04:50:07;;;;;;;8.93;5.55;;;12.40;99.90;;;;;;5086040;28;20180;-91
2021/05/12 04:52:32;;;;;;;9.48;5.65;;;12.50;99.90;;;;;;5071186;28;20167;-91
2021/05/12 04:54:58;;;;;;;11.85;5.03;;;12.70;99.90;;;;;;5059477;28;20539;-92
2021/05/12 04:57:24;;;;;;;7.28;5.15;;;12.90;99.90;;;;;;5057808;28;20186;-92
2021/05/12 04:59:50;;;;;;;6.28;4.60;;;13.30;99.90;;;;;;5056959;28;20159;-93
2021/05/12 05:02:16;;;;;;;12.18;4.60;;;13.80;99.90;;;;;;5040451;28;20179;-92
2021/05/12 05:04:42;;;;;;;7.80;4.00;;;14.80;99.90;;;;;;5056641;28;20176;-92
2021/05/12 05:07:08;;;;;;;5.95;3.22;;;16.00;99.90;;;;;;5057727;28;20631;-93
2021/05/12 05:09:34;;;;;;;5.38;3.35;;;17.20;99.90;;;;;;5057197;28;20178;-94
2021/05/12 05:12:00;;;;;;;6.45;2.83;;;18.40;99.90;;;;;;5057670;28;20281;-94
2021/05/12 05:14:26;;;;;;;4.80;3.10;;;19.40;99.90;;;;;;5057699;28;20297;-93
2021/05/12 05:16:52;;;;;;;5.43;2.90;;;20.20;99.90;;;;;;5056669;28;20253;-93
2021/05/12 05:19:18;;;;;;;3.92;2.58;;;20.80;99.90;;;;;;5057404;28;20171;-94
2021/05/12 05:21:43;;;;;;;5.20;2.83;;;21.20;99.90;;;;;;5056283;28;20202;-93
2021/05/12 05:24:09;;;;;;;4.93;2.50;;;21.60;99.90;;;;;;5055772;28;20167;-93
2021/05/12 05:26:36;;;;;;;4.97;2.90;;;22.10;99.90;;;;;;5056369;28;20163;-94
2021/05/12 05:29:02;;;;;;;11.65;3.00;;;22.30;99.90;;;;;;5039314;28;20182;-93
2021/05/12 05:31:28;;;;;;;6.43;2.63;;;22.20;99.90;;;;;;5056049;28;20176;-94
2021/05/12 05:33:54;;;;;;;9.82;2.75;;;22.10;99.90;;;;;;5035978;28;20176;-93
2021/05/12 05:36:20;;;;;;;5.10;2.53;;;22.60;99.90;;;;;;5054034;28;20646;-93
2021/05/12 05:38:46;;;;;;;6.55;2.85;;;23.30;99.90;;;;;;5047215;28;20183;-94
2021/05/12 05:41:11;;;;;;;5.00;2.70;;;24.20;99.90;;;;;;5056093;28;20192;-94
2021/05/12 05:43:37;;;;;;;3.75;2.60;;;24.90;99.90;;;;;;5035822;28;20180;-94
2021/05/12 05:46:03;;;;;;;3.08;1.90;;;25.60;99.90;;;;;;5069118;28;20170;-93
2021/05/12 05:48:28;;;;;;;6.32;2.28;;;26.40;99.90;;;;;;5042611;28;20206;-94
2021/05/12 05:50:55;;;;;;;5.00;2.40;;;27.30;99.90;;;;;;5057795;28;20183;-94
2021/05/12 05:53:21;;;;;;;4.50;2.15;;;27.90;99.90;;;;;;5058033;28;20183;-94
2021/05/12 05:55:47;;;;;;;3.42;2.30;;;28.50;99.30;;;;;;5055399;28;20194;-94
2021/05/12 05:58:13;;;;;;;6.60;2.13;;;29.00;97.20;;;;;;5038939;28;20179;-95
2021/05/12 06:00:40;;;;;;;2.78;1.63;;;29.50;96.70;;;;;;5056559;28;20191;-94
2021/05/12 06:03:07;;;;;;;4.10;2.00;;;30.00;95.80;;;;;;5040350;28;20205;-94
2021/05/12 06:05:33;;;;;;;4.93;2.03;;;30.20;93.80;;;;;;5055877;28;20175;-93
2021/05/12 06:07:59;;;;;;;5.25;1.80;;;30.10;93.20;;;;;;5055444;28;20179;-94
2021/05/12 06:10:25;;;;;;;6.93;1.77;;;30.00;93.50;;;;;;5057782;28;20178;-94
2021/05/12 06:12:51;;;;;;;4.55;1.77;;;30.40;92.70;;;;;;5038804;28;20167;-93
2021/05/12 06:15:20;;;;;;;3.33;1.80;;;30.70;92.40;;;;;;5057755;28;20174;-93
2021/05/12 06:17:50;;;;;;;4.07;1.70;;;30.80;91.50;;;;;;5055689;28;20530;-93
2021/05/12 06:20:15;;;;;;;4.57;1.92;;;30.90;91.70;;;;;;5055534;28;20198;-94
2021/05/12 06:22:42;;;;;;;3.88;1.70;;;31.60;90.70;;;;;;5055439;28;20175;-95
2021/05/12 06:25:10;;;;;;;6.28;1.80;;;32.00;89.40;;;;;;5055570;28;20620;-93
2021/05/12 06:27:36;;;;;;;3.00;1.70;;;31.90;88.30;;;;;;5036027;28;20167;-92
2021/05/12 06:30:06;;;;;;;5.97;1.73;;;31.70;87.50;;;;;;5072282;28;20183;-93
2021/05/12 06:32:32;;;;;;;3.45;2.05;;;31.40;89.00;;;;;;5055013;28;20252;-93
2021/05/12 06:34:57;;;;;;;2.92;1.80;;;31.60;88.80;;;;;;5057100;28;20199;-92
2021/05/12 06:37:23;;;;;;;6.07;1.75;;;32.00;87.10;;;;;;5057264;28;20171;-93
2021/05/12 06:39:51;;;;;;;4.47;1.58;;;32.00;85.50;;;;;;5054960;28;20224;-93
2021/05/12 06:42:20;;;;;;;7.05;1.92;;;32.20;85.60;;;;;;5055638;28;20175;-93
2021/05/12 06:44:46;;;;;;;13.48;1.55;;;32.30;84.90;;;;;;5056495;28;20167;-91
2021/05/12 06:47:11;;;;;;;3.33;1.73;;;31.90;85.20;;;;;;5055482;28;20179;-92
2021/05/12 06:49:37;;;;;;;4.65;1.40;;;31.90;85.20;;;;;;5054685;28;20174;-92
2021/05/12 06:52:03;;;;;;;6.10;2.03;;;32.00;84.70;;;;;;5037862;28;20176;-92
2021/05/12 06:54:28;;;;;;;4.47;1.60;;;31.30;85.70;;;;;;5056153;28;20203;-92
2021/05/12 06:56:54;;;;;;;7.18;1.90;;;30.90;87.00;;;;;;5055188;28;20183;-92
2021/05/12 06:59:20;;;;;;;7.40;2.38;;;30.80;86.50;;;;;;5054363;28;20501;-91
2021/05/12 07:01:45;;;;;;;9.93;2.00;;;30.90;87.10;;;;;;5063483;28;20194;-90
2021/05/12 07:04:11;;;;;;;13.50;2.40;;;31.50;86.60;;;;;;5072633;28;20190;-91
2021/05/12 07:06:36;;;;;;;5.35;1.70;;;32.00;84.50;;;;;;5071205;28;20176;-92
2021/05/12 07:09:02;;;;;;;6.78;2.15;;;31.70;85.80;;;;;;5056626;28;20175;-90
2021/05/12 07:11:29;;;;;;;4.40;1.90;;;32.00;83.80;;;;;;5054460;28;20199;-92
2021/05/12 07:13:54;;;;;;;3.85;1.80;;;31.60;84.90;;;;;;5054276;28;20636;-90
2021/05/12 07:16:21;;;;;;;3.05;1.67;;;31.90;83.70;;;;;;5054710;28;20197;-91
2021/05/12 07:18:46;;;;;;;7.40;2.10;;;32.40;82.60;;;;;;5056714;28;20167;-91
2021/05/12 07:21:12;;;;;;;3.25;1.80;;;33.20;81.60;;;;;;5069551;28;20221;-92
2021/05/12 07:23:42;;;;;;;6.10;1.85;;;33.50;81.80;;;;;;5068389;28;20245;-92
2021/05/12 07:26:08;;;;;;;4.53;2.28;;;33.40;80.10;;;;;;5056271;28;20171;-91
2021/05/12 07:28:33;;;;;;;4.38;1.70;;;33.80;81.10;;;;;;5054617;28;20167;-90
2021/05/12 07:30:59;;;;;;;5.07;2.42;;;33.10;78.90;;;;;;5054263;28;20175;-90
2021/05/12 07:33:25;;;;;;;4.45;2.13;;;31.80;78.50;;;;;;5037771;28;20179;-92
2021/05/12 07:35:50;;;;;;;5.78;2.35;;;30.00;83.30;;;;;;5057304;28;20167;-92
2021/05/12 07:38:16;;;;;;;9.43;2.13;;;29.80;84.90;;;;;;5054141;28;20171;-90
2021/05/12 07:40:42;;;;;;;6.22;2.25;;;30.80;83.00;;;;;;5038290;28;20206;-90
2021/05/12 07:43:09;;;;;;;4.65;2.00;;;32.10;79.90;;;;;;5055368;28;20628;-90
2021/05/12 07:45:37;;;;;;;11.02;2.63;;;31.30;80.60;;;;;;5055280;28;20217;-90
2021/05/12 07:48:11;;;;;;;3.78;1.90;;;31.30;79.90;;;;;;5057033;28;20207;-90
2021/05/12 07:50:38;;;;;;;4.50;2.20;;;33.10;78.20;;;;;;5055167;28;20234;-92
2021/05/12 07:53:06;;;;;;;6.57;2.20;;;34.50;76.80;;;;;;5056560;28;20205;-89
2021/05/12 07:55:32;;;;;;;6.38;2.30;;;35.00;71.60;;;;;;5054952;28;20186;-90
2021/05/12 07:57:58;;;;;;;6.80;2.60;;;35.90;73.40;;;;;;5052300;28;20206;-89
2021/05/12 08:00:23;;;;;;;5.38;2.25;;;33.40;74.00;;;;;;5023734;28;20238;-91
2021/05/12 08:02:50;;;;;;;8.70;2.38;;;31.00;78.50;;;;;;5061345;28;20674;-90
2021/05/12 08:05:16;;;;;;;8.82;2.50;;;31.60;78.70;;;;;;5067455;28;20167;-88
2021/05/12 08:07:41;;;;;;;10.18;2.58;;;32.10;76.00;;;;;;5057229;28;20169;-90
2021/05/12 08:10:08;;;;;;;9.73;2.75;;;31.30;76.80;;;;;;5037507;28;20195;-90
2021/05/12 08:12:34;;;;;;;27.60;9.00;;;28.80;80.60;;;;;;5058045;28;20699;-89
2021/05/12 08:15:00;;;;;;;14.90;5.28;;;27.10;85.20;;;;;;5057079;28;20237;-89
2021/05/12 08:17:26;;;;;;;48.95;12.95;;;26.20;86.80;;;;;;5058315;28;20515;-90
2021/05/12 08:19:51;;;;;;;6.93;3.00;;;25.70;86.30;;;;;;5057155;28;20590;-89
2021/05/12 08:22:17;;;;;;;46.25;12.77;;;26.70;84.80;;;;;;5040169;28;20237;-89
2021/05/12 08:24:43;;;;;;;9.77;3.83;;;27.60;86.40;;;;;;5057924;28;20258;-89
2021/05/12 08:27:09;;;;;;;7.78;2.78;;;28.60;84.20;;;;;;5058072;28;20258;-89
2021/05/12 08:29:40;;;;;;;8.55;2.70;;;31.50;80.40;;;;;;5056379;28;20179;-90
2021/05/12 08:32:07;;;;;;;6.25;2.30;;;34.00;76.30;;;;;;5057044;28;20171;-91
2021/05/12 08:34:32;;;;;;;7.50;2.33;;;36.50;73.60;;;;;;5057949;28;20181;-89
2021/05/12 08:36:58;;;;;;;11.50;2.42;;;37.40;70.80;;;;;;5056882;28;20203;-90
2021/05/12 08:39:24;;;;;;;6.55;2.60;;;36.80;66.60;;;;;;5040341;28;20178;-89
2021/05/12 08:41:50;;;;;;;9.73;2.80;;;37.70;67.10;;;;;;5043896;28;20195;-90
2021/05/12 08:44:16;;;;;;;9.15;2.38;;;37.50;67.50;;;;;;5036788;28;20601;-88
2021/05/12 08:46:44;;;;;;;6.47;2.33;;;38.00;64.70;;;;;;5049364;28;20171;-90
2021/05/12 08:49:10;;;;;;;6.50;2.00;;;38.50;60.70;;;;;;5057256;28;20162;-90
2021/05/12 08:51:39;;;;;;;8.27;2.00;;;37.70;60.80;;;;;;5056300;28;20185;-90
2021/05/12 08:54:07;;;;;;;6.38;2.47;;;35.30;63.80;;;;;;5056580;28;20174;-88
2021/05/12 08:56:32;;;;;;;4.35;1.80;;;33.90;68.50;;;;;;5049367;28;20184;-90
2021/05/12 08:58:59;;;;;;;5.10;1.90;;;32.90;67.00;;;;;;5056255;28;20609;-87
2021/05/12 09:01:25;;;;;;;12.23;2.20;;;31.50;71.60;;;;;;5055951;28;20199;-88
2021/05/12 09:03:51;;;;;;;7.53;1.80;;;29.10;74.60;;;;;;5056320;28;20515;-88
2021/05/12 09:06:18;;;;;;;7.90;1.80;;;27.00;78.30;;;;;;5055986;28;20167;-89
2021/05/12 09:08:46;;;;;;;5.10;1.73;;;26.50;80.40;;;;;;5056327;28;20603;-89
2021/05/12 09:11:12;;;;;;;5.88;1.75;;;25.30;83.50;;;;;;5057441;28;20604;-87
2021/05/12 09:13:39;;;;;;;5.63;2.30;;;24.60;86.30;;;;;;5055824;28;20182;-90
2021/05/12 09:16:24;;;;;;;10.10;1.88;;;25.80;84.10;;;;;;5069296;28;20171;-89
2021/05/12 09:19:10;;;;;;;5.78;2.10;;;26.10;82.40;;;;;;5049815;28;20171;-88
2021/05/12 09:21:58;;;;;;;6.70;1.73;;;28.30;82.70;;;;;;5055373;28;20202;-88
2021/05/12 09:24:29;;;;;;;4.28;1.77;;;31.10;78.10;;;;;;5055470;28;20210;-89
2021/05/12 09:27:00;;;;;;;7.50;2.10;;;29.30;76.60;;;;;;5089540;28;20509;-86
2021/05/12 09:29:29;;;;;;;11.27;2.05;;;28.60;79.10;;;;;;5057148;28;20616;-88
2021/05/12 09:32:13;;;;;;;8.15;2.25;;;27.90;79.40;;;;;;5055994;28;20206;-88
2021/05/12 09:35:00;;;;;;;6.47;1.63;;;28.00;78.70;;;;;;5074601;28;20176;-89
2021/05/12 09:37:27;;;;;;;12.18;2.50;;;29.20;79.10;;;;;;5052068;28;20570;-90
2021/05/12 09:39:54;;;;;;;3.88;1.95;;;28.60;75.30;;;;;;5036400;28;20175;-89
2021/05/12 09:42:20;;;;;;;9.20;2.50;;;27.30;79.60;;;;;;5035837;28;20180;-88
2021/05/12 09:44:47;;;;;;;5.80;2.38;;;25.90;81.80;;;;;;5054570;28;20178;-88
2021/05/12 09:47:29;;;;;;;6.10;2.60;;;25.50;81.80;;;;;;5089106;28;20694;-89
2021/05/12 09:49:55;;;;;;;5.88;2.60;;;26.40;83.10;;;;;;5063794;28;20306;-89
2021/05/12 09:52:30;;;;;;;5.38;2.40;;;25.60;85.60;;;;;;5069837;28;20191;-88
2021/05/12 09:55:00;;;;;;;12.10;2.30;;;25.30;87.00;;;;;;5060425;28;20190;-88
2021/05/12 09:57:27;;;;;;;6.78;2.42;;;25.10;87.10;;;;;;5051629;28;20187;-88
2021/05/12 09:59:53;;;;;;;8.93;2.70;;;24.50;88.10;;;;;;5065939;28;20221;-87
2021/05/12 10:02:18;;;;;;;9.55;2.47;;;25.40;88.30;;;;;;5053121;28;20176;-89
2021/05/12 10:04:46;;;;;;;8.27;3.50;;;26.80;85.00;;;;;;5033763;28;20172;-90
2021/05/12 10:07:26;;;;;;;9.68;3.92;;;28.30;82.90;;;;;;5046980;28;20229;-91
2021/05/12 10:09:56;;;;;;;10.68;3.47;;;31.00;75.00;;;;;;5035257;28;20172;-89
2021/05/12 10:12:22;;;;;;;8.00;2.70;;;33.50;71.70;;;;;;5076137;28;20686;-88
2021/05/12 10:14:49;;;;;;;5.18;2.60;;;34.50;66.70;;;;;;5055852;28;20176;-89
2021/05/12 10:17:16;;;;;;;9.40;2.97;;;31.50;69.90;;;;;;5054891;28;20254;-89
2021/05/12 10:19:44;;;;;;;8.68;2.38;;;28.70;72.50;;;;;;5046255;28;20767;-88
2021/05/12 10:22:11;;;;;;;6.13;2.88;;;26.90;79.60;;;;;;5039301;28;20183;-89
2021/05/12 10:24:39;;;;;;;8.98;2.50;;;25.60;81.70;;;;;;5053645;28;20175;-88
2021/05/12 10:27:10;;;;;;;7.30;1.95;;;24.50;85.00;;;;;;5055032;28;20603;-90
2021/05/12 10:29:39;;;;;;;5.65;1.90;;;23.40;85.60;;;;;;5055798;28;20170;-88
2021/05/12 10:32:15;;;;;;;6.90;1.73;;;22.60;89.40;;;;;;5055193;28;20183;-88
2021/05/12 10:34:41;;;;;;;3.72;1.35;;;21.90;90.40;;;;;;5053446;28;20163;-88
2021/05/12 10:37:20;;;;;;;7.90;1.73;;;21.40;91.00;;;;;;5056470;28;20178;-88
2021/05/12 10:39:50;;;;;;;6.38;1.70;;;20.90;93.20;;;;;;5054941;28;20222;-87
2021/05/12 10:42:56;;;;;;;5.75;2.00;;;20.20;93.80;;;;;;5053509;28;20267;-89
2021/05/12 10:48:31;;;;;;;3.17;1.50;;;19.40;95.40;;;;;;5049440;28;20184;-92
2021/05/12 10:50:58;;;;;;;4.13;1.50;;;19.20;96.10;;;;;;5055238;28;20183;-88
2021/05/12 10:53:32;;;;;;;11.00;1.73;;;19.10;95.90;;;;;;5053916;28;20190;-93
2021/05/12 10:55:57;;;;;;;3.67;1.48;;;19.00;95.70;;;;;;5053986;28;20834;-92
2021/05/12 10:58:28;;;;;;;6.70;1.40;;;19.10;95.30;;;;;;5054331;28;20304;-93
2021/05/12 11:00:58;;;;;;;3.85;1.30;;;19.20;96.40;;;;;;5066954;28;20259;-91
2021/05/12 11:03:54;;;;;;;4.75;1.20;;;19.40;97.70;;;;;;5070308;28;20195;-91
2021/05/12 11:06:25;;;;;;;2.92;1.35;;;20.10;97.50;;;;;;5069242;28;20199;-82
2021/05/12 11:09:05;;;;;;;11.98;1.38;;;21.10;95.50;;;;;;5065334;28;20163;-89
2021/05/12 11:11:31;;;;;;;3.47;1.27;;;23.10;93.50;;;;;;5061524;28;20186;-88
2021/05/12 11:14:19;;;;;;;5.05;1.63;;;25.20;88.30;;;;;;5073728;28;20176;-90
2021/05/12 11:17:10;;;;;;;1.77;1.00;;;27.10;79.30;;;;;;5042265;28;20175;-89
2021/05/12 11:19:49;;;;;;;3.53;1.00;;;27.10;79.90;;;;;;5054288;28;20582;-88
2021/05/12 11:22:29;;;;;;;5.43;1.30;;;25.90;81.10;;;;;;5054505;28;20599;-89
2021/05/12 11:25:04;;;;;;;7.53;1.23;;;24.90;80.60;;;;;;5045164;28;20537;-88
2021/05/12 11:32:34;;;;;;;8.93;2.33;;;21.10;96.00;;;;;;5061972;28;20208;-91
2021/05/12 11:35:12;;;;;;;5.22;2.00;;;20.40;99.90;;;;;;5047968;28;20233;-91
2021/05/12 11:37:44;;;;;;;13.23;2.35;;;20.00;99.90;;;;;;5053232;28;20259;-91
2021/05/12 11:40:10;;;;;;;5.97;1.48;;;20.10;99.90;;;;;;5055046;28;20286;-92
2021/05/12 11:42:35;;;;;;;6.82;1.85;;;20.10;99.90;;;;;;5063574;28;20200;-93
2021/05/12 11:45:21;;;;;;;5.20;1.73;;;20.10;99.90;;;;;;5064064;28;20171;-92
2021/05/12 11:48:02;;;;;;;11.68;2.28;;;20.30;99.90;;;;;;5062150;28;20179;-93
2021/05/12 11:50:33;;;;;;;4.63;1.38;;;20.80;99.90;;;;;;5061093;28;20175;-92
2021/05/12 11:52:59;;;;;;;7.05;1.85;;;21.80;99.90;;;;;;5060610;28;20175;-92
2021/05/12 11:55:30;;;;;;;4.03;1.88;;;21.70;99.90;;;;;;5066731;28;20190;-92
2021/05/12 11:57:56;;;;;;;4.20;1.60;;;21.50;99.90;;;;;;5076948;28;20202;-92
2021/05/12 12:00:32;;;;;;;6.68;2.20;;;22.10;99.90;;;;;;5077071;28;20215;-90
2021/05/12 12:03:07;;;;;;;5.60;2.00;;;23.50;99.90;;;;;;5076308;28;20293;-91
2021/05/12 12:05:38;;;;;;;7.75;2.03;;;25.00;99.90;;;;;;5075888;28;20179;-91
2021/05/12 12:08:14;;;;;;;9.60;2.17;;;25.40;96.10;;;;;;5098826;28;20202;-91
2021/05/12 12:10:41;;;;;;;4.85;1.67;;;24.50;96.10;;;;;;5053507;28;20229;-91
2021/05/12 12:13:16;;;;;;;4.43;2.00;;;22.80;96.30;;;;;;5060745;28;20186;-92
2021/05/12 12:15:47;;;;;;;6.32;1.73;;;22.00;98.70;;;;;;5033854;28;20270;-92
2021/05/12 12:18:28;;;;;;;6.18;2.33;;;21.60;99.40;;;;;;5050362;28;20175;-91
2021/05/12 12:20:53;;;;;;;10.95;2.72;;;21.30;99.90;;;;;;5063181;28;20201;-93
2021/05/12 12:23:30;;;;;;;7.10;1.98;;;20.90;99.90;;;;;;5044686;28;20183;-92
2021/05/12 12:26:15;;;;;;;5.20;1.80;;;20.50;99.90;;;;;;5060136;28;20221;-92
2021/05/12 12:28:44;;;;;;;6.13;1.88;;;20.30;99.90;;;;;;5038422;28;20597;-93
2021/05/12 12:31:14;;;;;;;5.70;2.05;;;20.20;99.90;;;;;;5077244;28;20832;-93
2021/05/12 12:33:40;;;;;;;9.23;1.90;;;20.40;99.90;;;;;;5041385;28;20175;-92
2021/05/12 12:36:08;;;;;;;6.05;2.10;;;21.10;99.90;;;;;;5052148;28;20180;-92
2021/05/12 12:38:36;;;;;;;11.50;2.25;;;21.70;99.90;;;;;;5052588;28;20644;-93
2021/05/12 12:41:03;;;;;;;8.05;2.30;;;21.90;99.90;;;;;;5054139;28;20195;-92
2021/05/12 12:43:39;;;;;;;13.25;2.97;;;22.20;99.90;;;;;;5053702;28;20175;-91
2021/05/12 12:46:05;;;;;;;9.93;1.95;;;22.50;99.90;;;;;;5053700;28;20174;-91
2021/05/12 12:48:31;;;;;;;6.07;1.98;;;22.70;99.90;;;;;;5033530;28;20254;-90
2021/05/12 12:50:57;;;;;;;11.15;2.75;;;22.70;99.00;;;;;;5033826;28;20176;-90
2021/05/12 12:53:28;;;;;;;8.27;2.40;;;22.90;99.50;;;;;;5033939;28;20187;-90
2021/05/12 12:56:07;;;;;;;6.40;2.30;;;22.90;98.20;;;;;;5065873;28;20643;-90